There are no active watches, warnings or advisories


Thunder radar more information blitzortung!


Rain radar more information rain snow radar


Visit our other weather sites:

Template documentation
and downloads

And another site



Nearby METAR Reports

  
KAVL - Asheville Regional Airprot, NC
Distance from station: S 11.7mi, 19km
Updated: May 21 2018 6:41 am
Mist, Overcast
Mist, Overcast  
 Wind from N
Wind: N 6 mph , 9 km/h
Temperature:  64°F , 18°C
Dew Point:  63°F , 17°C
Humidity:  94%
Barometer:  30.22 inHg , 1023.4 hPa
Summary:  Mist
Clouds:  Overcast
Visibility:  1 1/2 miles , 2 km
Cloud details:  Overcast 200 ft
2018/05/21 10:41 KAVL 211041Z 35005KT 1 1/2SM BR OVC002 18/17 A3022 RMK AO2 T01780167
KGSP - Greer (GSP Airport) SC USA
Distance from station: SSE 52mi, 84km
Updated: May 21 2018 5:53 am
Few Clouds
Few Clouds  
 Wind from SW
Wind: SW 6 mph , 9 km/h
Temperature:  66°F , 19°C
Dew Point:  66°F , 19°C
Humidity:  100%
Barometer:  30.15 inHg , 1021 hPa
Clouds:  Few Clouds
Visibility:   8 miles , 13 km
Cloud details:  Few Clouds 12000 ft
2018/05/21 09:53 KGSP 210953Z AUTO 22005KT 8SM FEW120 19/19 A3015 RMK AO2 SLP201 T01890189
KCLT - Charlotte, NC USA
Distance from station: ESE 92mi, 149km
Updated: May 21 2018 5:52 am
Mostly Cloudy
Mostly Cloudy  
 Wind from SSE
Wind: SSE 3 mph , 6 km/h
Temperature:  66°F , 19°C
Dew Point:  66°F , 19°C
Humidity:  100%
Barometer:  30.14 inHg , 1020.7 hPa
Clouds:  Mostly Cloudy
Visibility:   10 miles , 16 km
Cloud details:  Mostly Cloudy 14000 ft
2018/05/21 09:52 KCLT 210952Z 16003KT 10SM BKN140 19/19 A3014 RMK AO2 SLP196 T01940194
KRHP - Andrews, Andrews-Murphy Airport, NC, USA
Distance from station: WSW 81mi, 130km
Updated: May 21 2018 6:35 am
Partly Cloudy
Partly Cloudy  
 Wind from calm
Wind: Calm
Temperature:  61°F , 16°C
Dew Point:  61°F , 16°C
Humidity:  100%
Barometer:  30.20 inHg , 1022.7 hPa
Clouds:  Partly Cloudy
Visibility:   10 miles , 16 km
Cloud details:  Partly Cloudy 300 ft
2018/05/21 10:35 KRHP 211035Z AUTO 00000KT 10SM SCT003 16/16 A3020 RMK AO2 T01600160
KHKY - Hickory Reginal Airport, NC, USA
Distance from station: E 65mi, 104km
Updated: May 21 2018 5:53 am
Few Clouds
Few Clouds  
 Wind from calm
Wind: Calm
Temperature:  64°F , 18°C
Dew Point:  63°F , 17°C
Humidity:  94%
Barometer:  30.14 inHg , 1020.7 hPa
Clouds:  Few Clouds
Visibility:   8 miles , 13 km
Cloud details:  Few Clouds 300 ft
2018/05/21 09:53 KHKY 210953Z AUTO 00000KT 8SM FEW003 18/17 A3014 RMK AO2 SLP188 T01780172
KEHO - Shelby Municipal Airport, NC, USA
Distance from station: ESE 60mi, 96km
Updated: May 21 2018 6:40 am
Clear
Clear  
 Wind from calm
Wind: Calm
Temperature:  66°F , 19°C
Dew Point:  64°F , 18°C
Humidity:  94%
Barometer:  30.14 inHg , 1020.7 hPa
Clouds:  Clear
Visibility:   10 miles , 16 km
2018/05/21 10:40 KEHO 211040Z AUTO 00000KT 10SM CLR 19/18 A3014 RMK AO2 T01870183
KATL - Atlanta, De Kalb-Peachtree Airport, GA, USA
Distance from station: SSW 172mi, 237km
Updated: May 21 2018 5:52 am
Mostly Cloudy
Mostly Cloudy  
 Wind from calm
Wind: Calm
Temperature:  68°F , 20°C
Dew Point:  63°F , 17°C
Humidity:  83%
Barometer:  30.15 inHg , 1021 hPa
Clouds:  Mostly Cloudy
Visibility:   10 miles , 16 km
Cloud details:  Mostly Cloudy 14000 ft
2018/05/21 09:52 KATL 210952Z 00000KT 10SM BKN140 20/17 A3015 RMK AO2 SLP200 T02000172
KTYS - Knoxville, McGhee Tyson Airport, TN, USA
Distance from station: WNW 80mi, 130km
Updated: May 21 2018 5:53 am
Overcast
Overcast  
 Wind from W
Wind: W 6 mph , 9 km/h
Temperature:  68°F , 20°C
Dew Point:  64°F , 18°C
Humidity:  88%
Barometer:  30.14 inHg , 1020.7 hPa
Clouds:  Overcast
Visibility:   10 miles , 16 km
Cloud details:  Partly Cloudy 15000 ft
Overcast 25000 ft
2018/05/21 09:53 KTYS 210953Z 26005KT 10SM SCT150 OVC250 20/18 A3014 RMK AO2 SLP195 T02000183
KRDU - Durham, Raleigh-Durham Airport, NC USA
Distance from station: E 205mi, 330km
Updated: May 21 2018 5:51 am
Mostly Cloudy
Mostly Cloudy  
 Wind from SW
Wind: SW 5 mph , 7 km/h
Temperature:  70°F , 21°C
Dew Point:  70°F , 21°C
Humidity:  100%
Barometer:  30.11 inHg , 1019.6 hPa
Clouds:  Mostly Cloudy
Visibility:   10 miles , 16 km
Cloud details:  Mostly Cloudy 18000 ft
Mostly Cloudy 25000 ft
2018/05/21 09:51 KRDU 210951Z 22004KT 10SM BKN180 BKN250 21/21 A3011 RMK AO2 SLP193 T02060206
 

Script developed by  Saratoga-weather.org Adapted for the template by  Weerstation Leuven

You find our weather info also at:


Weather Underground

AWEKAS

Citizen Weather Observer Program (CWOP)

HAMweather, WeatherForYou, PWS Weather

Equipment we use:


Weather-station
Davis VP2

Weather-program
Weather Display

Weather-server
Dell Poweredge SC420

Provider
1&1

Davis VP2

Weather Display

Dell Poweredge SC420

1&1